sensor_id;sensor_type;location;lat;lon;timestamp;temperature;humidity
43151;DHT22;28755;51.478;5.702;2023-03-14T00:00:12;12.70;99.90
43151;DHT22;28755;51.478;5.702;2023-03-14T00:02:38;12.60;99.90
43151;DHT22;28755;51.478;5.702;2023-03-14T00:05:04;12.50;99.90
43151;DHT22;28755;51.478;5.702;2023-03-14T00:07:38;12.60;99.90
43151;DHT22;28755;51.478;5.702;2023-03-14T00:10:07;12.50;99.90
43151;DHT22;28755;51.478;5.702;2023-03-14T00:12:34;12.50;99.90
43151;DHT22;28755;51.478;5.702;2023-03-14T00:14:59;12.50;99.90
43151;DHT22;28755;51.478;5.702;2023-03-14T00:17:30;12.60;99.90
43151;DHT22;28755;51.478;5.702;2023-03-14T00:19:56;12.50;99.90
43151;DHT22;28755;51.478;5.702;2023-03-14T00:22:21;12.50;99.90
43151;DHT22;28755;51.478;5.702;2023-03-14T00:24:47;12.50;99.90
43151;DHT22;28755;51.478;5.702;2023-03-14T00:27:13;12.40;99.90
43151;DHT22;28755;51.478;5.702;2023-03-14T00:29:39;12.40;99.90
43151;DHT22;28755;51.478;5.702;2023-03-14T00:32:04;12.40;99.90
43151;DHT22;28755;51.478;5.702;2023-03-14T00:34:31;12.50;99.90
43151;DHT22;28755;51.478;5.702;2023-03-14T00:36:57;12.50;99.90
43151;DHT22;28755;51.478;5.702;2023-03-14T00:39:22;12.50;99.90
43151;DHT22;28755;51.478;5.702;2023-03-14T00:41:48;12.40;99.90
43151;DHT22;28755;51.478;5.702;2023-03-14T00:44:14;12.40;99.90
43151;DHT22;28755;51.478;5.702;2023-03-14T00:46:39;12.40;99.90
43151;DHT22;28755;51.478;5.702;2023-03-14T00:49:05;12.30;99.90
43151;DHT22;28755;51.478;5.702;2023-03-14T00:51:30;12.30;99.90
43151;DHT22;28755;51.478;5.702;2023-03-14T00:53:56;12.20;99.90
43151;DHT22;28755;51.478;5.702;2023-03-14T00:56:21;12.20;99.90
43151;DHT22;28755;51.478;5.702;2023-03-14T00:58:47;12.10;99.90
43151;DHT22;28755;51.478;5.702;2023-03-14T01:01:18;12.10;99.90
43151;DHT22;28755;51.478;5.702;2023-03-14T01:03:44;12.20;99.90
43151;DHT22;28755;51.478;5.702;2023-03-14T01:06:15;12.10;99.90
43151;DHT22;28755;51.478;5.702;2023-03-14T01:08:41;12.10;99.90
43151;DHT22;28755;51.478;5.702;2023-03-14T01:11:09;12.10;99.90
43151;DHT22;28755;51.478;5.702;2023-03-14T01:13:36;12.10;99.90
43151;DHT22;28755;51.478;5.702;2023-03-14T01:16:06;12.00;99.90
43151;DHT22;28755;51.478;5.702;2023-03-14T01:18:33;12.00;99.90
43151;DHT22;28755;51.478;5.702;2023-03-14T01:21:01;11.90;99.90
43151;DHT22;28755;51.478;5.702;2023-03-14T01:23:26;11.90;99.90
43151;DHT22;28755;51.478;5.702;2023-03-14T01:25:52;12.00;99.90
43151;DHT22;28755;51.478;5.702;2023-03-14T01:28:17;12.00;99.90
43151;DHT22;28755;51.478;5.702;2023-03-14T01:30:43;11.90;99.90
43151;DHT22;28755;51.478;5.702;2023-03-14T01:33:08;12.00;99.90
43151;DHT22;28755;51.478;5.702;2023-03-14T01:35:34;12.00;99.90
43151;DHT22;28755;51.478;5.702;2023-03-14T01:37:59;12.00;99.90
43151;DHT22;28755;51.478;5.702;2023-03-14T01:40:25;11.90;99.90
43151;DHT22;28755;51.478;5.702;2023-03-14T01:42:55;11.90;99.90
43151;DHT22;28755;51.478;5.702;2023-03-14T01:48:05;11.90;99.90
43151;DHT22;28755;51.478;5.702;2023-03-14T01:50:31;11.90;99.90
43151;DHT22;28755;51.478;5.702;2023-03-14T01:52:57;11.90;99.90
43151;DHT22;28755;51.478;5.702;2023-03-14T01:55:24;11.90;99.90
43151;DHT22;28755;51.478;5.702;2023-03-14T01:58:02;11.90;99.90
43151;DHT22;28755;51.478;5.702;2023-03-14T02:00:28;11.90;99.90
43151;DHT22;28755;51.478;5.702;2023-03-14T02:03:02;11.90;99.90
43151;DHT22;28755;51.478;5.702;2023-03-14T02:05:32;11.90;99.90
43151;DHT22;28755;51.478;5.702;2023-03-14T02:08:01;11.90;99.90
43151;DHT22;28755;51.478;5.702;2023-03-14T02:10:32;11.80;99.90
43151;DHT22;28755;51.478;5.702;2023-03-14T02:13:02;11.80;99.90
43151;DHT22;28755;51.478;5.702;2023-03-14T02:15:28;11.80;99.90
43151;DHT22;28755;51.478;5.702;2023-03-14T02:17:54;11.70;99.90
43151;DHT22;28755;51.478;5.702;2023-03-14T02:23:15;11.70;99.90
43151;DHT22;28755;51.478;5.702;2023-03-14T02:25:48;11.70;99.90
43151;DHT22;28755;51.478;5.702;2023-03-14T02:28:16;11.70;99.90
43151;DHT22;28755;51.478;5.702;2023-03-14T02:30:42;11.60;99.90
43151;DHT22;28755;51.478;5.702;2023-03-14T02:33:14;11.50;99.90
43151;DHT22;28755;51.478;5.702;2023-03-14T02:38:21;11.40;99.90
43151;DHT22;28755;51.478;5.702;2023-03-14T02:40:48;11.30;99.90
43151;DHT22;28755;51.478;5.702;2023-03-14T02:43:13;11.30;99.90
43151;DHT22;28755;51.478;5.702;2023-03-14T02:45:40;11.30;99.90
43151;DHT22;28755;51.478;5.702;2023-03-14T02:48:11;11.30;99.90
43151;DHT22;28755;51.478;5.702;2023-03-14T02:50:38;11.20;99.90
43151;DHT22;28755;51.478;5.702;2023-03-14T02:53:05;11.30;99.90
43151;DHT22;28755;51.478;5.702;2023-03-14T02:55:30;11.20;99.90
43151;DHT22;28755;51.478;5.702;2023-03-14T02:57:56;11.20;99.90
43151;DHT22;28755;51.478;5.702;2023-03-14T03:00:21;11.20;99.90
43151;DHT22;28755;51.478;5.702;2023-03-14T03:02:47;11.30;99.90
43151;DHT22;28755;51.478;5.702;2023-03-14T03:05:12;11.20;99.90
43151;DHT22;28755;51.478;5.702;2023-03-14T03:07:38;11.20;99.90
43151;DHT22;28755;51.478;5.702;2023-03-14T03:10:04;11.20;99.90
43151;DHT22;28755;51.478;5.702;2023-03-14T03:12:30;11.20;99.90
43151;DHT22;28755;51.478;5.702;2023-03-14T03:14:55;11.30;99.90
43151;DHT22;28755;51.478;5.702;2023-03-14T03:17:21;11.30;99.90
43151;DHT22;28755;51.478;5.702;2023-03-14T03:19:46;11.20;99.90
43151;DHT22;28755;51.478;5.702;2023-03-14T03:22:12;11.20;99.90
43151;DHT22;28755;51.478;5.702;2023-03-14T03:24:37;11.30;99.90
43151;DHT22;28755;51.478;5.702;2023-03-14T03:27:03;11.20;99.90
43151;DHT22;28755;51.478;5.702;2023-03-14T03:29:28;11.20;99.90
43151;DHT22;28755;51.478;5.702;2023-03-14T03:31:54;11.20;99.90
43151;DHT22;28755;51.478;5.702;2023-03-14T03:34:20;11.20;99.90
43151;DHT22;28755;51.478;5.702;2023-03-14T03:36:45;11.20;99.90
43151;DHT22;28755;51.478;5.702;2023-03-14T03:39:11;11.20;99.90
43151;DHT22;28755;51.478;5.702;2023-03-14T03:41:36;11.20;99.90
43151;DHT22;28755;51.478;5.702;2023-03-14T03:44:02;11.10;99.90
43151;DHT22;28755;51.478;5.702;2023-03-14T03:46:27;11.20;99.90
43151;DHT22;28755;51.478;5.702;2023-03-14T03:48:57;11.20;99.90
43151;DHT22;28755;51.478;5.702;2023-03-14T03:51:23;11.20;99.90
43151;DHT22;28755;51.478;5.702;2023-03-14T03:53:49;11.10;99.90
43151;DHT22;28755;51.478;5.702;2023-03-14T03:56:15;11.10;99.90
43151;DHT22;28755;51.478;5.702;2023-03-14T03:58:40;11.10;99.90
43151;DHT22;28755;51.478;5.702;2023-03-14T04:01:08;11.00;99.90
43151;DHT22;28755;51.478;5.702;2023-03-14T04:03:34;11.00;99.90
43151;DHT22;28755;51.478;5.702;2023-03-14T04:06:03;11.10;99.90
43151;DHT22;28755;51.478;5.702;2023-03-14T04:08:29;10.90;99.90
43151;DHT22;28755;51.478;5.702;2023-03-14T04:10:59;10.90;99.90
43151;DHT22;28755;51.478;5.702;2023-03-14T04:13:26;10.80;99.90
43151;DHT22;28755;51.478;5.702;2023-03-14T04:15:52;10.70;99.90
43151;DHT22;28755;51.478;5.702;2023-03-14T04:18:18;10.60;99.90
43151;DHT22;28755;51.478;5.702;2023-03-14T04:20:44;10.60;99.90
43151;DHT22;28755;51.478;5.702;2023-03-14T04:23:10;10.50;99.90
43151;DHT22;28755;51.478;5.702;2023-03-14T04:25:35;10.60;99.90
43151;DHT22;28755;51.478;5.702;2023-03-14T04:28:01;10.60;99.90
43151;DHT22;28755;51.478;5.702;2023-03-14T04:30:29;10.50;99.90
43151;DHT22;28755;51.478;5.702;2023-03-14T04:32:54;10.60;99.90
43151;DHT22;28755;51.478;5.702;2023-03-14T04:35:20;10.50;99.90
43151;DHT22;28755;51.478;5.702;2023-03-14T04:37:45;10.40;99.90
43151;DHT22;28755;51.478;5.702;2023-03-14T04:40:14;10.50;99.90
43151;DHT22;28755;51.478;5.702;2023-03-14T04:42:40;10.40;99.90
43151;DHT22;28755;51.478;5.702;2023-03-14T04:45:07;10.30;99.90
43151;DHT22;28755;51.478;5.702;2023-03-14T04:47:32;10.30;99.90
43151;DHT22;28755;51.478;5.702;2023-03-14T04:49:58;10.20;99.90
43151;DHT22;28755;51.478;5.702;2023-03-14T04:52:23;10.20;99.90
43151;DHT22;28755;51.478;5.702;2023-03-14T04:54:49;10.20;99.90
43151;DHT22;28755;51.478;5.702;2023-03-14T04:57:15;10.10;99.90
43151;DHT22;28755;51.478;5.702;2023-03-14T04:59:40;10.20;99.90
43151;DHT22;28755;51.478;5.702;2023-03-14T05:02:06;10.20;99.90
43151;DHT22;28755;51.478;5.702;2023-03-14T05:04:32;10.20;99.90
43151;DHT22;28755;51.478;5.702;2023-03-14T05:06:59;10.20;99.90
43151;DHT22;28755;51.478;5.702;2023-03-14T05:09:25;10.10;99.90
43151;DHT22;28755;51.478;5.702;2023-03-14T05:11:50;10.10;99.90
43151;DHT22;28755;51.478;5.702;2023-03-14T05:14:16;10.00;99.90
43151;DHT22;28755;51.478;5.702;2023-03-14T05:16:42;10.00;99.90
43151;DHT22;28755;51.478;5.702;2023-03-14T05:19:07;10.00;99.90
43151;DHT22;28755;51.478;5.702;2023-03-14T05:21:33;10.00;99.90
43151;DHT22;28755;51.478;5.702;2023-03-14T05:23:58;10.10;99.90
43151;DHT22;28755;51.478;5.702;2023-03-14T05:26:24;10.10;99.90
43151;DHT22;28755;51.478;5.702;2023-03-14T05:28:50;10.10;99.90
43151;DHT22;28755;51.478;5.702;2023-03-14T05:31:15;10.10;99.90
43151;DHT22;28755;51.478;5.702;2023-03-14T05:33:41;10.20;99.90
43151;DHT22;28755;51.478;5.702;2023-03-14T05:36:07;10.20;99.90
43151;DHT22;28755;51.478;5.702;2023-03-14T05:38:33;10.20;99.90
43151;DHT22;28755;51.478;5.702;2023-03-14T05:40:58;10.20;99.90
43151;DHT22;28755;51.478;5.702;2023-03-14T05:43:25;10.20;99.90
43151;DHT22;28755;51.478;5.702;2023-03-14T05:45:50;10.20;99.90
43151;DHT22;28755;51.478;5.702;2023-03-14T05:48:16;10.30;99.90
43151;DHT22;28755;51.478;5.702;2023-03-14T05:50:42;10.10;99.90
43151;DHT22;28755;51.478;5.702;2023-03-14T05:53:08;10.20;99.90
43151;DHT22;28755;51.478;5.702;2023-03-14T05:55:33;10.20;99.90
43151;DHT22;28755;51.478;5.702;2023-03-14T05:57:59;10.20;99.90
43151;DHT22;28755;51.478;5.702;2023-03-14T06:00:24;10.30;99.90
43151;DHT22;28755;51.478;5.702;2023-03-14T06:02:50;10.30;99.90
43151;DHT22;28755;51.478;5.702;2023-03-14T06:05:16;10.20;99.90
43151;DHT22;28755;51.478;5.702;2023-03-14T06:07:41;10.20;99.90
43151;DHT22;28755;51.478;5.702;2023-03-14T06:10:07;10.30;99.90
43151;DHT22;28755;51.478;5.702;2023-03-14T06:12:33;10.30;99.90
43151;DHT22;28755;51.478;5.702;2023-03-14T06:14:59;10.30;99.90
43151;DHT22;28755;51.478;5.702;2023-03-14T06:17:25;10.30;99.90
43151;DHT22;28755;51.478;5.702;2023-03-14T06:19:50;10.20;99.90
43151;DHT22;28755;51.478;5.702;2023-03-14T06:22:16;10.30;99.90
43151;DHT22;28755;51.478;5.702;2023-03-14T06:24:41;10.20;99.90
43151;DHT22;28755;51.478;5.702;2023-03-14T06:27:07;10.20;99.90
43151;DHT22;28755;51.478;5.702;2023-03-14T06:29:33;10.30;99.90
43151;DHT22;28755;51.478;5.702;2023-03-14T06:31:58;10.20;99.90
43151;DHT22;28755;51.478;5.702;2023-03-14T06:34:24;10.30;99.90
43151;DHT22;28755;51.478;5.702;2023-03-14T06:36:49;10.30;99.90
43151;DHT22;28755;51.478;5.702;2023-03-14T06:39:15;10.30;99.90
43151;DHT22;28755;51.478;5.702;2023-03-14T06:41:40;10.40;99.90
43151;DHT22;28755;51.478;5.702;2023-03-14T06:44:06;10.40;99.90
43151;DHT22;28755;51.478;5.702;2023-03-14T06:46:32;10.40;99.90
43151;DHT22;28755;51.478;5.702;2023-03-14T06:48:57;10.40;99.90
43151;DHT22;28755;51.478;5.702;2023-03-14T06:51:23;10.50;99.90
43151;DHT22;28755;51.478;5.702;2023-03-14T06:53:48;10.50;99.90
43151;DHT22;28755;51.478;5.702;2023-03-14T06:59:36;10.70;99.90
43151;DHT22;28755;51.478;5.702;2023-03-14T07:02:01;10.80;99.90
43151;DHT22;28755;51.478;5.702;2023-03-14T07:04:27;10.90;99.90
43151;DHT22;28755;51.478;5.702;2023-03-14T07:06:52;10.90;99.90
43151;DHT22;28755;51.478;5.702;2023-03-14T07:09:18;11.00;99.90
43151;DHT22;28755;51.478;5.702;2023-03-14T07:11:44;11.20;99.90
43151;DHT22;28755;51.478;5.702;2023-03-14T07:14:09;11.40;99.90
43151;DHT22;28755;51.478;5.702;2023-03-14T07:16:35;11.50;99.90
43151;DHT22;28755;51.478;5.702;2023-03-14T07:19:01;11.50;99.90
43151;DHT22;28755;51.478;5.702;2023-03-14T07:21:27;11.50;99.90
43151;DHT22;28755;51.478;5.702;2023-03-14T07:23:53;11.30;99.90
43151;DHT22;28755;51.478;5.702;2023-03-14T07:26:18;11.30;99.90
43151;DHT22;28755;51.478;5.702;2023-03-14T07:28:44;11.30;99.90
43151;DHT22;28755;51.478;5.702;2023-03-14T07:31:10;11.40;99.90
43151;DHT22;28755;51.478;5.702;2023-03-14T07:33:35;11.30;99.90
43151;DHT22;28755;51.478;5.702;2023-03-14T07:36:01;11.30;99.90
43151;DHT22;28755;51.478;5.702;2023-03-14T07:38:27;11.30;99.90
43151;DHT22;28755;51.478;5.702;2023-03-14T07:41:04;11.30;99.90
43151;DHT22;28755;51.478;5.702;2023-03-14T07:43:30;11.20;99.90
43151;DHT22;28755;51.478;5.702;2023-03-14T07:45:56;11.20;99.90
43151;DHT22;28755;51.478;5.702;2023-03-14T07:48:21;11.10;99.90
43151;DHT22;28755;51.478;5.702;2023-03-14T07:50:53;11.00;99.90
43151;DHT22;28755;51.478;5.702;2023-03-14T07:53:19;10.90;99.90
43151;DHT22;28755;51.478;5.702;2023-03-14T07:55:45;10.90;99.90
43151;DHT22;28755;51.478;5.702;2023-03-14T07:58:11;10.30;99.90
43151;DHT22;28755;51.478;5.702;2023-03-14T08:00:36;10.00;99.90
43151;DHT22;28755;51.478;5.702;2023-03-14T08:03:02;9.70;99.90
43151;DHT22;28755;51.478;5.702;2023-03-14T08:05:28;9.50;99.90
43151;DHT22;28755;51.478;5.702;2023-03-14T08:07:53;9.40;99.90
43151;DHT22;28755;51.478;5.702;2023-03-14T08:10:19;9.30;99.90
43151;DHT22;28755;51.478;5.702;2023-03-14T08:12:53;9.20;99.90
43151;DHT22;28755;51.478;5.702;2023-03-14T08:15:19;9.20;99.90
43151;DHT22;28755;51.478;5.702;2023-03-14T08:17:45;9.20;99.90
43151;DHT22;28755;51.478;5.702;2023-03-14T08:20:20;9.10;99.90
43151;DHT22;28755;51.478;5.702;2023-03-14T08:22:45;8.90;99.90
43151;DHT22;28755;51.478;5.702;2023-03-14T08:25:11;8.90;99.90
43151;DHT22;28755;51.478;5.702;2023-03-14T08:27:37;9.00;99.90
43151;DHT22;28755;51.478;5.702;2023-03-14T08:30:05;8.90;99.90
43151;DHT22;28755;51.478;5.702;2023-03-14T08:32:31;8.90;99.90
43151;DHT22;28755;51.478;5.702;2023-03-14T08:34:57;8.90;99.90
43151;DHT22;28755;51.478;5.702;2023-03-14T08:37:23;9.10;99.90
43151;DHT22;28755;51.478;5.702;2023-03-14T08:39:50;8.90;99.90
43151;DHT22;28755;51.478;5.702;2023-03-14T08:42:16;9.00;99.90
43151;DHT22;28755;51.478;5.702;2023-03-14T08:44:41;9.10;99.90
43151;DHT22;28755;51.478;5.702;2023-03-14T08:47:07;9.10;99.90
43151;DHT22;28755;51.478;5.702;2023-03-14T08:49:32;8.90;99.90
43151;DHT22;28755;51.478;5.702;2023-03-14T08:51:58;8.90;99.90
43151;DHT22;28755;51.478;5.702;2023-03-14T08:54:24;9.10;99.90
43151;DHT22;28755;51.478;5.702;2023-03-14T08:56:49;9.20;99.90
43151;DHT22;28755;51.478;5.702;2023-03-14T08:59:15;9.00;99.90
43151;DHT22;28755;51.478;5.702;2023-03-14T09:01:41;9.00;99.90
43151;DHT22;28755;51.478;5.702;2023-03-14T09:04:06;9.10;99.90
43151;DHT22;28755;51.478;5.702;2023-03-14T09:06:32;9.20;99.90
43151;DHT22;28755;51.478;5.702;2023-03-14T09:08:58;9.20;99.90
43151;DHT22;28755;51.478;5.702;2023-03-14T09:11:23;9.40;99.90
43151;DHT22;28755;51.478;5.702;2023-03-14T09:13:49;9.60;99.90
43151;DHT22;28755;51.478;5.702;2023-03-14T09:16:15;9.40;99.90
43151;DHT22;28755;51.478;5.702;2023-03-14T09:18:40;9.50;99.90
43151;DHT22;28755;51.478;5.702;2023-03-14T09:21:06;9.50;99.90
43151;DHT22;28755;51.478;5.702;2023-03-14T09:23:32;9.70;99.90
43151;DHT22;28755;51.478;5.702;2023-03-14T09:25:58;9.70;99.90
43151;DHT22;28755;51.478;5.702;2023-03-14T09:28:24;9.60;99.90
43151;DHT22;28755;51.478;5.702;2023-03-14T09:30:50;9.60;99.90
43151;DHT22;28755;51.478;5.702;2023-03-14T09:33:16;9.40;99.90
43151;DHT22;28755;51.478;5.702;2023-03-14T09:35:42;9.40;99.90
43151;DHT22;28755;51.478;5.702;2023-03-14T09:38:08;9.40;99.90
43151;DHT22;28755;51.478;5.702;2023-03-14T09:40:37;9.00;99.90
43151;DHT22;28755;51.478;5.702;2023-03-14T09:43:04;8.90;99.90
43151;DHT22;28755;51.478;5.702;2023-03-14T09:45:38;8.70;99.90
43151;DHT22;28755;51.478;5.702;2023-03-14T09:48:08;8.70;99.90
43151;DHT22;28755;51.478;5.702;2023-03-14T09:50:51;8.70;99.90
43151;DHT22;28755;51.478;5.702;2023-03-14T09:53:27;8.60;99.90
43151;DHT22;28755;51.478;5.702;2023-03-14T09:55:54;8.50;99.90
43151;DHT22;28755;51.478;5.702;2023-03-14T09:58:24;7.90;99.90
43151;DHT22;28755;51.478;5.702;2023-03-14T10:00:52;7.60;99.90
43151;DHT22;28755;51.478;5.702;2023-03-14T10:03:31;7.50;99.90
43151;DHT22;28755;51.478;5.702;2023-03-14T10:05:58;7.50;99.90
43151;DHT22;28755;51.478;5.702;2023-03-14T10:08:24;7.60;99.90
43151;DHT22;28755;51.478;5.702;2023-03-14T10:10:50;7.70;99.90
43151;DHT22;28755;51.478;5.702;2023-03-14T10:13:24;7.90;99.90
43151;DHT22;28755;51.478;5.702;2023-03-14T10:15:55;8.40;99.90
43151;DHT22;28755;51.478;5.702;2023-03-14T10:18:22;9.00;99.90
43151;DHT22;28755;51.478;5.702;2023-03-14T10:20:49;9.60;99.90
43151;DHT22;28755;51.478;5.702;2023-03-14T10:23:28;9.90;99.90
43151;DHT22;28755;51.478;5.702;2023-03-14T10:26:16;9.60;99.90
43151;DHT22;28755;51.478;5.702;2023-03-14T10:28:47;9.70;99.90
43151;DHT22;28755;51.478;5.702;2023-03-14T10:31:14;9.90;99.90
43151;DHT22;28755;51.478;5.702;2023-03-14T10:33:40;10.00;99.90
43151;DHT22;28755;51.478;5.702;2023-03-14T10:36:23;10.10;99.90
43151;DHT22;28755;51.478;5.702;2023-03-14T10:38:49;9.50;99.90
43151;DHT22;28755;51.478;5.702;2023-03-14T10:41:24;9.10;99.90
43151;DHT22;28755;51.478;5.702;2023-03-14T10:43:53;9.00;99.90
43151;DHT22;28755;51.478;5.702;2023-03-14T10:46:20;8.80;99.90
43151;DHT22;28755;51.478;5.702;2023-03-14T10:48:46;8.70;99.90
43151;DHT22;28755;51.478;5.702;2023-03-14T10:51:24;9.50;99.90
43151;DHT22;28755;51.478;5.702;2023-03-14T10:56:24;10.20;99.90
43151;DHT22;28755;51.478;5.702;2023-03-14T10:58:53;11.70;99.90
43151;DHT22;28755;51.478;5.702;2023-03-14T11:01:55;12.50;99.90
43151;DHT22;28755;51.478;5.702;2023-03-14T11:07:16;12.40;99.90
43151;DHT22;28755;51.478;5.702;2023-03-14T11:15:53;11.50;99.90
43151;DHT22;28755;51.478;5.702;2023-03-14T11:24:18;9.60;99.90
43151;DHT22;28755;51.478;5.702;2023-03-14T11:27:11;9.50;99.90
43151;DHT22;28755;51.478;5.702;2023-03-14T11:29:41;9.80;99.90
43151;DHT22;28755;51.478;5.702;2023-03-14T11:32:28;10.20;99.90
43151;DHT22;28755;51.478;5.702;2023-03-14T11:34:58;10.20;99.90
43151;DHT22;28755;51.478;5.702;2023-03-14T11:37:34;10.00;99.90
43151;DHT22;28755;51.478;5.702;2023-03-14T11:40:13;9.90;99.90
43151;DHT22;28755;51.478;5.702;2023-03-14T11:42:43;9.60;99.90
43151;DHT22;28755;51.478;5.702;2023-03-14T11:45:22;9.30;99.90
43151;DHT22;28755;51.478;5.702;2023-03-14T11:48:18;8.50;99.90
43151;DHT22;28755;51.478;5.702;2023-03-14T11:50:47;8.00;99.90
43151;DHT22;28755;51.478;5.702;2023-03-14T11:56:14;7.60;99.90
43151;DHT22;28755;51.478;5.702;2023-03-14T11:58:55;7.90;99.90
43151;DHT22;28755;51.478;5.702;2023-03-14T12:01:27;8.00;99.90
43151;DHT22;28755;51.478;5.702;2023-03-14T12:07:13;8.00;99.90
43151;DHT22;28755;51.478;5.702;2023-03-14T12:09:40;8.10;99.90
43151;DHT22;28755;51.478;5.702;2023-03-14T12:12:06;8.30;99.90
43151;DHT22;28755;51.478;5.702;2023-03-14T12:14:36;8.50;99.90
43151;DHT22;28755;51.478;5.702;2023-03-14T12:17:21;8.40;99.90
43151;DHT22;28755;51.478;5.702;2023-03-14T12:20:05;8.50;99.90
43151;DHT22;28755;51.478;5.702;2023-03-14T12:22:52;8.90;99.90
43151;DHT22;28755;51.478;5.702;2023-03-14T12:25:26;9.00;99.90
43151;DHT22;28755;51.478;5.702;2023-03-14T12:30:41;7.90;99.90
43151;DHT22;28755;51.478;5.702;2023-03-14T12:35:57;7.80;99.90
43151;DHT22;28755;51.478;5.702;2023-03-14T12:43:33;9.70;99.90
43151;DHT22;28755;51.478;5.702;2023-03-14T12:46:23;11.00;99.90
43151;DHT22;28755;51.478;5.702;2023-03-14T12:48:50;12.60;99.90
43151;DHT22;28755;51.478;5.702;2023-03-14T12:51:21;12.60;99.90
43151;DHT22;28755;51.478;5.702;2023-03-14T12:54:19;11.80;99.90
43151;DHT22;28755;51.478;5.702;2023-03-14T13:04:44;13.70;99.90
43151;DHT22;28755;51.478;5.702;2023-03-14T13:07:31;13.60;99.90
43151;DHT22;28755;51.478;5.702;2023-03-14T13:10:03;13.40;99.90
43151;DHT22;28755;51.478;5.702;2023-03-14T13:12:37;14.40;99.90
43151;DHT22;28755;51.478;5.702;2023-03-14T13:15:13;15.60;99.90
43151;DHT22;28755;51.478;5.702;2023-03-14T13:17:41;16.50;99.90
43151;DHT22;28755;51.478;5.702;2023-03-14T13:20:14;15.70;99.90
43151;DHT22;28755;51.478;5.702;2023-03-14T13:22:46;15.20;99.90
43151;DHT22;28755;51.478;5.702;2023-03-14T13:25:12;15.70;99.90
43151;DHT22;28755;51.478;5.702;2023-03-14T13:27:38;15.50;99.90
43151;DHT22;28755;51.478;5.702;2023-03-14T13:30:24;14.60;99.90
43151;DHT22;28755;51.478;5.702;2023-03-14T13:32:51;15.00;99.90
43151;DHT22;28755;51.478;5.702;2023-03-14T13:35:21;15.30;99.90
43151;DHT22;28755;51.478;5.702;2023-03-14T13:37:51;15.60;99.90
43151;DHT22;28755;51.478;5.702;2023-03-14T13:40:24;15.00;99.90
43151;DHT22;28755;51.478;5.702;2023-03-14T13:43:04;13.80;99.90
43151;DHT22;28755;51.478;5.702;2023-03-14T13:45:30;13.30;99.90
43151;DHT22;28755;51.478;5.702;2023-03-14T13:47:56;13.50;99.90
43151;DHT22;28755;51.478;5.702;2023-03-14T13:50:22;14.10;99.90
43151;DHT22;28755;51.478;5.702;2023-03-14T13:52:55;14.10;99.90
43151;DHT22;28755;51.478;5.702;2023-03-14T13:55:22;14.20;99.90
43151;DHT22;28755;51.478;5.702;2023-03-14T13:57:52;14.10;97.70
43151;DHT22;28755;51.478;5.702;2023-03-14T14:00:26;14.10;98.00
43151;DHT22;28755;51.478;5.702;2023-03-14T14:02:57;14.50;97.40
43151;DHT22;28755;51.478;5.702;2023-03-14T14:05:27;14.50;96.80
43151;DHT22;28755;51.478;5.702;2023-03-14T14:07:53;13.80;97.40
43151;DHT22;28755;51.478;5.702;2023-03-14T14:10:19;13.10;96.90
43151;DHT22;28755;51.478;5.702;2023-03-14T14:12:59;13.10;98.50
43151;DHT22;28755;51.478;5.702;2023-03-14T14:15:33;12.50;98.40
43151;DHT22;28755;51.478;5.702;2023-03-14T14:18:04;11.90;99.50
43151;DHT22;28755;51.478;5.702;2023-03-14T14:20:36;11.90;99.90
43151;DHT22;28755;51.478;5.702;2023-03-14T14:23:05;12.10;99.90
43151;DHT22;28755;51.478;5.702;2023-03-14T14:25:32;12.50;99.90
43151;DHT22;28755;51.478;5.702;2023-03-14T14:27:58;12.20;99.90
43151;DHT22;28755;51.478;5.702;2023-03-14T14:30:28;11.50;99.90
43151;DHT22;28755;51.478;5.702;2023-03-14T14:33:11;11.20;99.90
43151;DHT22;28755;51.478;5.702;2023-03-14T14:35:37;11.30;99.90
43151;DHT22;28755;51.478;5.702;2023-03-14T14:38:11;11.10;99.90
43151;DHT22;28755;51.478;5.702;2023-03-14T14:40:47;11.20;99.90
43151;DHT22;28755;51.478;5.702;2023-03-14T14:43:21;11.20;99.90
43151;DHT22;28755;51.478;5.702;2023-03-14T14:45:49;11.00;99.90
43151;DHT22;28755;51.478;5.702;2023-03-14T14:48:19;10.80;99.90
43151;DHT22;28755;51.478;5.702;2023-03-14T14:53:19;10.40;99.90
43151;DHT22;28755;51.478;5.702;2023-03-14T14:55:50;10.50;99.90
43151;DHT22;28755;51.478;5.702;2023-03-14T15:00:41;10.60;99.90
43151;DHT22;28755;51.478;5.702;2023-03-14T15:03:15;10.70;99.90
43151;DHT22;28755;51.478;5.702;2023-03-14T15:05:41;10.70;99.10
43151;DHT22;28755;51.478;5.702;2023-03-14T15:08:10;10.60;99.40
43151;DHT22;28755;51.478;5.702;2023-03-14T15:10:36;10.60;99.90
43151;DHT22;28755;51.478;5.702;2023-03-14T15:13:02;10.60;99.90
43151;DHT22;28755;51.478;5.702;2023-03-14T15:15:27;10.40;99.90
43151;DHT22;28755;51.478;5.702;2023-03-14T15:17:53;10.00;99.90
43151;DHT22;28755;51.478;5.702;2023-03-14T15:20:18;9.80;99.90
43151;DHT22;28755;51.478;5.702;2023-03-14T15:22:45;9.60;99.90
43151;DHT22;28755;51.478;5.702;2023-03-14T15:25:12;9.50;99.90
43151;DHT22;28755;51.478;5.702;2023-03-14T15:27:37;9.50;99.90
43151;DHT22;28755;51.478;5.702;2023-03-14T15:30:13;9.60;99.90
43151;DHT22;28755;51.478;5.702;2023-03-14T15:32:39;9.30;99.90
43151;DHT22;28755;51.478;5.702;2023-03-14T15:35:05;9.00;99.90
43151;DHT22;28755;51.478;5.702;2023-03-14T15:37:30;8.80;99.90
43151;DHT22;28755;51.478;5.702;2023-03-14T15:39:56;8.80;99.90
43151;DHT22;28755;51.478;5.702;2023-03-14T15:42:25;8.70;99.90
43151;DHT22;28755;51.478;5.702;2023-03-14T15:44:50;8.70;99.90
43151;DHT22;28755;51.478;5.702;2023-03-14T15:47:16;8.80;99.90
43151;DHT22;28755;51.478;5.702;2023-03-14T15:49:41;8.60;99.90
43151;DHT22;28755;51.478;5.702;2023-03-14T15:52:08;8.70;99.90
43151;DHT22;28755;51.478;5.702;2023-03-14T15:54:34;8.40;99.90
43151;DHT22;28755;51.478;5.702;2023-03-14T15:57:00;8.30;99.90
43151;DHT22;28755;51.478;5.702;2023-03-14T15:59:26;8.30;99.90
43151;DHT22;28755;51.478;5.702;2023-03-14T16:01:51;8.30;99.90
43151;DHT22;28755;51.478;5.702;2023-03-14T16:04:17;8.20;99.90
43151;DHT22;28755;51.478;5.702;2023-03-14T16:06:44;8.30;99.90
43151;DHT22;28755;51.478;5.702;2023-03-14T16:09:11;8.30;99.90
43151;DHT22;28755;51.478;5.702;2023-03-14T16:11:36;8.30;99.90
43151;DHT22;28755;51.478;5.702;2023-03-14T16:14:02;8.20;99.90
43151;DHT22;28755;51.478;5.702;2023-03-14T16:16:28;8.10;99.90
43151;DHT22;28755;51.478;5.702;2023-03-14T16:18:53;8.00;99.90
43151;DHT22;28755;51.478;5.702;2023-03-14T16:21:20;7.90;99.90
43151;DHT22;28755;51.478;5.702;2023-03-14T16:23:46;7.80;99.90
43151;DHT22;28755;51.478;5.702;2023-03-14T16:26:16;7.80;99.90
43151;DHT22;28755;51.478;5.702;2023-03-14T16:28:43;7.80;99.90
43151;DHT22;28755;51.478;5.702;2023-03-14T16:31:12;7.90;99.90
43151;DHT22;28755;51.478;5.702;2023-03-14T16:33:38;7.70;99.90
43151;DHT22;28755;51.478;5.702;2023-03-14T16:36:06;7.70;99.90
43151;DHT22;28755;51.478;5.702;2023-03-14T16:38:33;7.70;99.90